Weather at Belfast International Airport

Public forecast

Using degrees Celsius for public forecast. Weather courtesy of forecast.io.

Current aviation weather report (METAR) for Belfast International Airport

Retrieved 2022/08/17 13:50 UTC (14 minutes ago):

EGAA 171350Z AUTO 12005KT 070V180 9999 FEW020 BKN024 BKN042 16/11 Q1017

Aviation forecast (TAF) for Belfast International Airport

Retrieved 2022/08/17 12:00 UTC (2 hours ago):

TAF EGAA 171055Z 1712/1812 14005KT 9999 BKN020 TEMPO 1712/1716 BKN014 BECMG 1723/1802 20010KT BECMG 1802/1805 OVC010 TEMPO 1803/1806 6000 -RADZ BKN007 PROB30 TEMPO 1805/1809 3000 DZ BKN004 BECMG 1809/1812 SCT020